createdAt,value
2022-10-03T00:00:31.597Z,0.00
2022-10-03T00:01:31.507Z,0.00
2022-10-03T00:02:31.605Z,0.00
2022-10-03T00:03:31.479Z,0.00
2022-10-03T00:04:31.487Z,0.00
2022-10-03T00:05:31.462Z,0.00
2022-10-03T00:06:31.502Z,0.00
2022-10-03T00:07:31.505Z,0.00
2022-10-03T00:08:31.490Z,0.00
2022-10-03T00:09:31.415Z,0.00
2022-10-03T00:10:31.441Z,0.00
2022-10-03T00:11:31.360Z,0.00
2022-10-03T00:12:31.494Z,0.00
2022-10-03T00:13:31.347Z,0.00
2022-10-03T00:14:31.384Z,0.00
2022-10-03T00:15:31.324Z,0.00
2022-10-03T00:16:31.378Z,0.00
2022-10-03T00:17:31.277Z,0.00
2022-10-03T00:18:31.369Z,0.00
2022-10-03T00:19:31.291Z,0.00
2022-10-03T00:20:31.234Z,0.00
2022-10-03T00:21:31.216Z,0.00
2022-10-03T00:22:31.216Z,0.00
2022-10-03T00:23:31.195Z,0.00
2022-10-03T00:24:31.249Z,0.00
2022-10-03T00:25:31.180Z,0.00
2022-10-03T00:26:31.153Z,0.00
2022-10-03T00:27:31.140Z,0.00
2022-10-03T00:28:31.272Z,0.00
2022-10-03T00:29:31.108Z,0.00
2022-10-03T00:30:31.089Z,0.00
2022-10-03T00:31:31.229Z,0.00
2022-10-03T00:32:31.102Z,0.00
2022-10-03T00:33:31.085Z,0.00
2022-10-03T00:34:31.049Z,0.00
2022-10-03T00:35:31.020Z,0.00
2022-10-03T00:36:31.040Z,0.00
2022-10-03T00:37:30.984Z,0.00
2022-10-03T00:38:31.056Z,0.00
2022-10-03T00:39:31.012Z,0.00
2022-10-03T00:40:30.983Z,0.00
2022-10-03T00:41:30.937Z,0.00
2022-10-03T00:42:31.034Z,0.00
2022-10-03T00:43:30.936Z,0.00
2022-10-03T00:44:30.895Z,0.00
2022-10-03T00:45:30.933Z,0.00
2022-10-03T00:46:30.956Z,0.00
2022-10-03T00:47:30.872Z,0.00
2022-10-03T00:48:30.897Z,0.00
2022-10-03T00:49:30.862Z,0.00
2022-10-03T00:50:30.913Z,0.00
2022-10-03T00:51:30.807Z,0.00
2022-10-03T00:52:30.818Z,0.00
2022-10-03T00:53:30.821Z,0.00
2022-10-03T00:54:30.879Z,0.00
2022-10-03T00:55:30.792Z,0.00
2022-10-03T00:56:29.864Z,0.00
2022-10-03T00:57:30.742Z,0.00
2022-10-03T00:58:30.783Z,0.00
2022-10-03T00:59:30.701Z,0.00
2022-10-03T01:00:30.751Z,0.00
2022-10-03T01:01:30.690Z,0.00
2022-10-03T01:02:30.719Z,0.00
2022-10-03T01:03:30.744Z,0.00
2022-10-03T01:04:30.688Z,0.00
2022-10-03T01:05:30.759Z,0.00
2022-10-03T01:06:30.603Z,0.00
2022-10-03T01:07:30.595Z,0.00
2022-10-03T01:08:30.648Z,0.00
2022-10-03T01:09:30.610Z,0.00
2022-10-03T01:10:30.613Z,0.00
2022-10-03T01:11:30.669Z,0.00
2022-10-03T01:12:30.547Z,0.00
2022-10-03T01:13:30.551Z,0.00
2022-10-03T01:14:30.489Z,0.00
2022-10-03T01:15:30.496Z,0.00
2022-10-03T01:16:30.597Z,0.00
2022-10-03T01:17:30.452Z,0.00
2022-10-03T01:18:30.483Z,0.00
2022-10-03T01:19:30.497Z,0.00
2022-10-03T01:20:30.453Z,0.00
2022-10-03T01:21:30.394Z,0.00
2022-10-03T01:22:30.402Z,0.00
2022-10-03T01:23:30.424Z,0.00
2022-10-03T01:24:30.357Z,0.00
2022-10-03T01:25:30.424Z,0.00
2022-10-03T01:26:30.324Z,0.00
2022-10-03T01:27:30.324Z,0.00
2022-10-03T01:28:30.382Z,0.00
2022-10-03T01:29:30.383Z,0.00
2022-10-03T01:30:30.272Z,0.00
2022-10-03T01:31:30.303Z,0.00
2022-10-03T01:32:30.243Z,0.00
2022-10-03T01:33:30.239Z,0.00
2022-10-03T01:34:30.336Z,0.00
2022-10-03T01:35:30.281Z,0.00
2022-10-03T01:36:30.187Z,0.00
2022-10-03T01:37:30.240Z,0.00
2022-10-03T01:38:30.223Z,0.00
2022-10-03T01:39:30.156Z,0.00
2022-10-03T01:40:30.201Z,0.00
2022-10-03T01:41:30.158Z,0.00
2022-10-03T01:42:30.100Z,0.00
2022-10-03T01:43:30.144Z,0.00
2022-10-03T01:44:30.104Z,0.00
2022-10-03T01:45:30.180Z,0.00
2022-10-03T01:46:30.090Z,0.00
2022-10-03T01:47:30.117Z,0.00
2022-10-03T01:48:30.064Z,0.00
2022-10-03T01:49:30.042Z,0.00
2022-10-03T01:50:29.998Z,0.00
2022-10-03T01:51:29.986Z,0.00
2022-10-03T01:52:29.977Z,0.00
2022-10-03T01:53:29.986Z,0.00
2022-10-03T01:54:29.942Z,0.00
2022-10-03T01:55:29.984Z,0.00
2022-10-03T01:56:29.990Z,0.00
2022-10-03T01:57:30.015Z,0.00
2022-10-03T01:58:29.918Z,0.00
2022-10-03T01:59:29.953Z,0.00
2022-10-03T02:00:30.006Z,0.00
2022-10-03T02:01:29.889Z,0.00
2022-10-03T02:02:29.936Z,0.00
2022-10-03T02:03:29.946Z,0.00
2022-10-03T02:04:29.977Z,0.00
2022-10-03T02:05:29.869Z,0.00
2022-10-03T02:06:29.803Z,0.00
2022-10-03T02:07:29.820Z,0.00
2022-10-03T02:08:29.917Z,0.00
2022-10-03T02:09:29.884Z,0.00
2022-10-03T02:10:29.822Z,0.00
2022-10-03T02:11:29.783Z,0.00
2022-10-03T02:12:29.941Z,0.00
2022-10-03T02:13:29.718Z,0.00
2022-10-03T02:14:29.713Z,0.00
2022-10-03T02:15:29.658Z,0.00
2022-10-03T02:16:29.724Z,0.00
2022-10-03T02:17:29.848Z,0.00
2022-10-03T02:18:29.709Z,0.00
2022-10-03T02:19:30.058Z,0.00
2022-10-03T02:20:29.659Z,0.00
2022-10-03T02:21:29.620Z,0.00
2022-10-03T02:22:29.696Z,0.00
2022-10-03T02:23:29.620Z,0.00
2022-10-03T02:24:29.992Z,0.00
2022-10-03T02:25:29.595Z,0.00
2022-10-03T02:26:29.631Z,0.00
2022-10-03T02:27:29.573Z,0.00
2022-10-03T02:28:29.583Z,0.00
2022-10-03T02:29:30.410Z,0.00
2022-10-03T02:30:29.520Z,0.00
2022-10-03T02:31:29.606Z,0.00
2022-10-03T02:32:29.485Z,0.00
2022-10-03T02:33:29.442Z,0.00
2022-10-03T02:34:29.518Z,0.00
2022-10-03T02:35:29.434Z,0.00
2022-10-03T02:36:29.368Z,0.00
2022-10-03T02:37:29.548Z,0.00
2022-10-03T02:38:29.383Z,0.00
2022-10-03T02:39:29.391Z,0.00
2022-10-03T02:40:29.415Z,0.00
2022-10-03T02:41:29.395Z,0.00
2022-10-03T02:42:29.372Z,0.00
2022-10-03T02:43:29.314Z,0.00
2022-10-03T02:44:29.337Z,0.00
2022-10-03T02:45:29.340Z,0.00
2022-10-03T02:46:29.289Z,0.00
2022-10-03T02:47:29.313Z,0.00
2022-10-03T02:48:32.182Z,0.00
2022-10-03T02:49:29.325Z,0.00
2022-10-03T02:50:29.224Z,0.00
2022-10-03T02:51:29.202Z,0.00
2022-10-03T02:52:29.142Z,0.00
2022-10-03T02:53:29.140Z,0.00
2022-10-03T02:54:29.211Z,0.00
2022-10-03T02:55:31.165Z,0.00
2022-10-03T02:56:29.141Z,0.00
2022-10-03T02:57:29.170Z,0.00
2022-10-03T02:58:29.085Z,0.00
2022-10-03T02:59:29.111Z,0.00
2022-10-03T03:00:29.119Z,0.00
2022-10-03T03:01:29.241Z,0.00
2022-10-03T03:02:50.120Z,0.00
2022-10-03T03:03:29.108Z,0.00
2022-10-03T03:04:29.061Z,0.00
2022-10-03T03:05:29.057Z,0.00
2022-10-03T03:06:29.045Z,0.00
2022-10-03T03:07:28.971Z,0.00
2022-10-03T03:08:29.013Z,0.00
2022-10-03T03:09:29.138Z,0.00
2022-10-03T03:10:28.920Z,0.00
2022-10-03T03:11:28.899Z,0.00
2022-10-03T03:12:29.042Z,0.00
2022-10-03T03:13:28.865Z,0.00
2022-10-03T03:14:28.954Z,0.00
2022-10-03T03:15:28.891Z,0.00
2022-10-03T03:16:28.934Z,0.00
2022-10-03T03:17:28.927Z,0.00
2022-10-03T03:18:28.916Z,0.00
2022-10-03T03:19:28.875Z,0.00
2022-10-03T03:20:28.967Z,0.00
2022-10-03T03:21:28.823Z,0.00
2022-10-03T03:22:28.871Z,0.00
2022-10-03T03:23:28.737Z,0.00
2022-10-03T03:24:28.817Z,0.00
2022-10-03T03:25:28.727Z,0.00
2022-10-03T03:26:28.792Z,0.00
2022-10-03T03:27:28.804Z,0.00
2022-10-03T03:28:28.788Z,0.00
2022-10-03T03:29:28.828Z,0.00
2022-10-03T03:30:28.743Z,0.00
2022-10-03T03:31:28.800Z,0.00
2022-10-03T03:32:29.029Z,0.00
2022-10-03T03:33:28.674Z,0.00
2022-10-03T03:34:28.685Z,0.00
2022-10-03T03:35:28.678Z,0.00
2022-10-03T03:36:28.649Z,0.00
2022-10-03T03:37:28.772Z,0.00
2022-10-03T03:38:28.699Z,0.00
2022-10-03T03:39:28.624Z,0.00
2022-10-03T03:40:28.616Z,0.00
2022-10-03T03:41:28.547Z,0.00
2022-10-03T03:42:28.478Z,0.00
2022-10-03T03:43:28.564Z,0.00
2022-10-03T03:44:28.516Z,0.00
2022-10-03T03:45:28.613Z,0.00
2022-10-03T03:46:28.490Z,0.00
2022-10-03T03:47:28.516Z,0.00
2022-10-03T03:48:28.485Z,0.00
2022-10-03T03:49:28.478Z,0.00
2022-10-03T03:50:28.590Z,0.00
2022-10-03T03:51:28.494Z,0.00
2022-10-03T03:52:28.396Z,0.00
2022-10-03T03:53:28.458Z,0.00
2022-10-03T03:54:28.415Z,0.00
2022-10-03T03:55:28.407Z,0.00
2022-10-03T03:56:51.409Z,0.00
2022-10-03T03:57:28.362Z,0.00
2022-10-03T03:58:28.334Z,0.00
2022-10-03T03:59:28.246Z,0.00
2022-10-03T04:00:30.067Z,0.00
2022-10-03T04:01:28.378Z,0.00
2022-10-03T04:02:28.343Z,0.00
2022-10-03T04:03:28.263Z,0.00
2022-10-03T04:04:28.274Z,0.00
2022-10-03T04:05:28.379Z,0.00
2022-10-03T04:06:28.303Z,0.00
2022-10-03T04:07:28.261Z,0.00
2022-10-03T04:08:28.236Z,0.00
2022-10-03T04:09:28.140Z,0.00
2022-10-03T04:10:28.202Z,0.00
2022-10-03T04:11:29.208Z,0.00
2022-10-03T04:12:29.210Z,0.00
2022-10-03T04:13:28.091Z,0.00
2022-10-03T04:14:28.139Z,0.00
2022-10-03T04:15:28.160Z,0.00
2022-10-03T04:16:28.210Z,0.00
2022-10-03T04:17:28.036Z,0.00
2022-10-03T04:18:28.075Z,0.00
2022-10-03T04:19:28.130Z,0.00
2022-10-03T04:20:28.086Z,0.00
2022-10-03T04:21:27.954Z,0.00
2022-10-03T04:22:28.027Z,0.00
2022-10-03T04:23:27.957Z,0.00
2022-10-03T04:24:28.048Z,0.00
2022-10-03T04:25:28.056Z,0.00
2022-10-03T04:26:29.556Z,0.00
2022-10-03T04:27:27.931Z,0.00
2022-10-03T04:28:28.033Z,0.00
2022-10-03T04:29:27.957Z,0.00
2022-10-03T04:30:27.966Z,0.00
2022-10-03T04:31:27.959Z,0.00
2022-10-03T04:32:27.919Z,0.00
2022-10-03T04:33:27.866Z,0.00
2022-10-03T04:34:29.025Z,0.00
2022-10-03T04:35:27.945Z,0.00
2022-10-03T04:36:49.046Z,0.00
2022-10-03T04:37:27.928Z,0.00
2022-10-03T04:38:27.833Z,0.00
2022-10-03T04:39:27.811Z,0.00
2022-10-03T04:40:27.921Z,0.00
2022-10-03T04:41:27.757Z,0.00
2022-10-03T04:42:27.732Z,0.00
2022-10-03T04:43:27.742Z,0.00
2022-10-03T04:44:27.673Z,0.00
2022-10-03T04:45:27.777Z,0.00
2022-10-03T04:46:27.748Z,0.00
2022-10-03T04:47:27.678Z,0.00
2022-10-03T04:48:27.735Z,0.00
2022-10-03T04:49:27.681Z,0.00
2022-10-03T04:50:27.697Z,0.00
2022-10-03T04:51:27.723Z,0.00
2022-10-03T04:52:27.587Z,0.00
2022-10-03T04:53:27.598Z,0.00
2022-10-03T04:54:27.617Z,0.00
2022-10-03T04:55:27.665Z,0.00
2022-10-03T04:56:27.513Z,0.00
2022-10-03T04:57:27.563Z,0.00
2022-10-03T04:58:27.570Z,0.00
2022-10-03T04:59:27.571Z,0.00
2022-10-03T05:00:27.545Z,0.00
2022-10-03T05:01:27.521Z,0.00
2022-10-03T05:02:27.552Z,0.00
2022-10-03T05:03:27.475Z,0.00
2022-10-03T05:04:27.492Z,0.00
2022-10-03T05:05:27.485Z,0.00
2022-10-03T05:06:27.378Z,0.00
2022-10-03T05:07:27.328Z,0.00
2022-10-03T05:08:27.394Z,0.00
2022-10-03T05:09:27.462Z,0.00
2022-10-03T05:10:27.393Z,0.00
2022-10-03T05:11:27.325Z,0.00
2022-10-03T05:12:27.357Z,0.00
2022-10-03T05:13:27.419Z,0.00
2022-10-03T05:14:27.320Z,0.00
2022-10-03T05:15:27.243Z,0.00
2022-10-03T05:16:27.350Z,0.00
2022-10-03T05:17:27.247Z,0.00
2022-10-03T05:18:27.325Z,0.00
2022-10-03T05:19:27.170Z,0.00
2022-10-03T05:20:28.933Z,0.00
2022-10-03T05:21:27.240Z,0.00
2022-10-03T05:22:27.161Z,0.00
2022-10-03T05:23:27.220Z,0.00
2022-10-03T05:24:27.538Z,0.00
2022-10-03T05:25:27.162Z,0.00
2022-10-03T05:27:27.155Z,0.00
2022-10-03T05:28:27.166Z,0.00
2022-10-03T05:29:27.091Z,0.00
2022-10-03T05:30:27.109Z,0.00
2022-10-03T05:31:27.179Z,0.00
2022-10-03T05:32:27.082Z,0.00
2022-10-03T05:33:26.976Z,0.00
2022-10-03T05:34:27.124Z,0.00
2022-10-03T05:35:27.063Z,0.00
2022-10-03T05:36:26.972Z,0.00
2022-10-03T05:37:26.978Z,0.00
2022-10-03T05:38:26.959Z,0.00
2022-10-03T05:39:27.038Z,0.00
2022-10-03T05:40:26.964Z,5.62
2022-10-03T05:41:26.954Z,5.62
2022-10-03T05:42:26.916Z,5.62
2022-10-03T05:43:26.880Z,5.62
2022-10-03T05:44:27.986Z,5.62
2022-10-03T05:45:26.917Z,5.62
2022-10-03T05:46:26.903Z,5.62
2022-10-03T05:47:26.867Z,5.62
2022-10-03T05:48:26.930Z,5.62
2022-10-03T05:49:27.042Z,5.62
2022-10-03T05:50:26.747Z,5.62
2022-10-03T05:51:26.816Z,11.25
2022-10-03T05:52:26.771Z,11.25
2022-10-03T05:53:26.845Z,11.25
2022-10-03T05:54:26.833Z,11.25
2022-10-03T05:55:26.702Z,11.25
2022-10-03T05:56:26.710Z,11.25
2022-10-03T05:57:26.703Z,11.25
2022-10-03T05:58:26.742Z,11.25
2022-10-03T05:59:26.667Z,11.25
2022-10-03T06:00:26.657Z,11.25
2022-10-03T06:01:26.654Z,16.88
2022-10-03T06:02:26.776Z,16.88
2022-10-03T06:03:26.629Z,16.88
2022-10-03T06:04:26.623Z,16.88
2022-10-03T06:05:26.611Z,16.88
2022-10-03T06:06:26.611Z,16.88
2022-10-03T06:07:26.626Z,16.88
2022-10-03T06:08:26.535Z,16.88
2022-10-03T06:09:26.525Z,16.88
2022-10-03T06:10:26.591Z,16.88
2022-10-03T06:11:26.572Z,16.88
2022-10-03T06:12:26.754Z,22.50
2022-10-03T06:13:26.501Z,22.50
2022-10-03T06:14:26.490Z,22.50
2022-10-03T06:15:26.504Z,22.50
2022-10-03T06:16:26.544Z,22.50
2022-10-03T06:17:26.423Z,22.50
2022-10-03T06:18:26.410Z,22.50
2022-10-03T06:19:26.519Z,22.50
2022-10-03T06:20:26.408Z,22.50
2022-10-03T06:21:26.465Z,28.12
2022-10-03T06:22:26.403Z,28.12
2022-10-03T06:23:26.339Z,28.12
2022-10-03T06:24:26.339Z,28.12
2022-10-03T06:25:26.384Z,28.12
2022-10-03T06:26:26.342Z,28.12
2022-10-03T06:27:26.343Z,28.12
2022-10-03T06:28:26.304Z,28.12
2022-10-03T06:29:26.391Z,33.75
2022-10-03T06:30:26.326Z,33.75
2022-10-03T06:31:29.643Z,33.75
2022-10-03T06:32:26.202Z,33.75
2022-10-03T06:33:26.514Z,33.75
2022-10-03T06:34:26.208Z,33.75
2022-10-03T06:35:26.205Z,33.75
2022-10-03T06:36:26.219Z,33.75
2022-10-03T06:37:26.130Z,33.75
2022-10-03T06:38:26.135Z,33.75
2022-10-03T06:39:26.134Z,39.38
2022-10-03T06:40:26.162Z,33.75
2022-10-03T06:41:26.123Z,33.75
2022-10-03T06:42:26.048Z,39.38
2022-10-03T06:43:26.119Z,39.38
2022-10-03T06:44:26.025Z,39.38
2022-10-03T06:45:30.699Z,39.38
2022-10-03T06:46:26.198Z,39.38
2022-10-03T06:47:26.010Z,39.38
2022-10-03T06:48:25.947Z,39.38
2022-10-03T06:49:26.043Z,39.38
2022-10-03T06:50:26.123Z,45.00
2022-10-03T06:51:30.397Z,45.00
2022-10-03T06:52:25.906Z,45.00
2022-10-03T06:53:25.950Z,45.00
2022-10-03T06:54:25.996Z,45.00
2022-10-03T06:55:25.914Z,45.00
2022-10-03T06:56:25.954Z,45.00
2022-10-03T06:57:25.844Z,45.00
2022-10-03T06:58:25.863Z,45.00
2022-10-03T06:59:25.961Z,50.62
2022-10-03T07:00:25.877Z,50.62
2022-10-03T07:01:25.862Z,45.00
2022-10-03T07:02:25.851Z,45.00
2022-10-03T07:03:25.923Z,45.00
2022-10-03T07:04:25.877Z,50.62
2022-10-03T07:05:25.871Z,50.62
2022-10-03T07:06:25.724Z,50.62
2022-10-03T07:07:25.787Z,50.62
2022-10-03T07:08:25.722Z,50.62
2022-10-03T07:09:25.721Z,45.00
2022-10-03T07:10:25.851Z,56.25
2022-10-03T07:11:25.702Z,50.62
2022-10-03T07:12:25.868Z,56.25
2022-10-03T07:13:25.677Z,50.62
2022-10-03T07:14:25.711Z,56.25
2022-10-03T07:15:43.676Z,50.62
2022-10-03T07:16:27.299Z,50.62
2022-10-03T07:17:25.639Z,56.25
2022-10-03T07:18:25.654Z,56.25
2022-10-03T07:19:25.616Z,56.25
2022-10-03T07:20:25.607Z,50.62
2022-10-03T07:21:25.574Z,61.88
2022-10-03T07:22:25.539Z,50.62
2022-10-03T07:23:25.544Z,61.88
2022-10-03T07:24:25.473Z,50.62
2022-10-03T07:25:25.470Z,56.25
2022-10-03T07:26:25.503Z,67.50
2022-10-03T07:27:25.544Z,56.25
2022-10-03T07:28:25.527Z,50.62
2022-10-03T07:29:25.480Z,56.25
2022-10-03T07:30:25.425Z,50.62
2022-10-03T07:31:25.458Z,56.25
2022-10-03T07:32:25.439Z,56.25
2022-10-03T07:33:25.420Z,56.25
2022-10-03T07:34:25.404Z,50.62
2022-10-03T07:35:25.383Z,50.62
2022-10-03T07:36:25.366Z,50.62
2022-10-03T07:37:25.342Z,56.25
2022-10-03T07:38:25.346Z,56.25
2022-10-03T07:39:27.061Z,50.62
2022-10-03T07:40:25.301Z,50.62
2022-10-03T07:41:25.239Z,45.00
2022-10-03T07:42:25.251Z,50.62
2022-10-03T07:43:25.230Z,50.62
2022-10-03T07:44:25.236Z,50.62
2022-10-03T07:45:25.237Z,50.62
2022-10-03T07:46:25.286Z,56.25
2022-10-03T07:47:25.175Z,50.62
2022-10-03T07:48:25.143Z,50.62
2022-10-03T07:49:25.153Z,50.62
2022-10-03T07:50:25.147Z,45.00
2022-10-03T07:51:25.143Z,45.00
2022-10-03T07:52:25.117Z,45.00
2022-10-03T07:53:25.085Z,45.00
2022-10-03T07:54:25.062Z,45.00
2022-10-03T07:55:25.207Z,56.25
2022-10-03T07:56:25.072Z,50.62
2022-10-03T07:57:25.028Z,50.62
2022-10-03T07:58:25.046Z,56.25
2022-10-03T07:59:24.991Z,50.62
2022-10-03T08:00:25.035Z,50.62
2022-10-03T08:01:24.989Z,50.62
2022-10-03T08:02:24.971Z,50.62
2022-10-03T08:03:46.067Z,50.62
2022-10-03T08:04:24.966Z,50.62
2022-10-03T08:05:24.921Z,45.00
2022-10-03T08:06:24.893Z,50.62
2022-10-03T08:07:24.842Z,50.62
2022-10-03T08:08:25.026Z,45.00
2022-10-03T08:09:24.977Z,50.62
2022-10-03T08:10:24.849Z,50.62
2022-10-03T08:11:24.929Z,50.62
2022-10-03T08:12:24.825Z,50.62
2022-10-03T08:13:24.821Z,50.62
2022-10-03T08:14:24.864Z,50.62
2022-10-03T08:15:24.792Z,50.62
2022-10-03T08:16:24.826Z,50.62
2022-10-03T08:17:45.731Z,50.62
2022-10-03T08:18:24.760Z,50.62
2022-10-03T08:19:24.753Z,50.62
2022-10-03T08:20:24.763Z,50.62
2022-10-03T08:21:24.701Z,50.62
2022-10-03T08:22:24.696Z,50.62
2022-10-03T08:23:24.714Z,50.62
2022-10-03T08:24:24.656Z,50.62
2022-10-03T08:25:24.611Z,50.62
2022-10-03T08:26:24.688Z,50.62
2022-10-03T08:27:24.645Z,50.62
2022-10-03T08:28:24.667Z,50.62
2022-10-03T08:29:26.566Z,50.62
2022-10-03T08:30:24.617Z,50.62
2022-10-03T08:31:24.624Z,50.62
2022-10-03T08:32:24.573Z,50.62
2022-10-03T08:33:24.517Z,50.62
2022-10-03T08:34:24.604Z,56.25
2022-10-03T08:35:24.532Z,56.25
2022-10-03T08:36:24.499Z,56.25
2022-10-03T08:37:24.477Z,56.25
2022-10-03T08:38:27.934Z,50.62
2022-10-03T08:39:24.491Z,50.62
2022-10-03T08:40:24.401Z,50.62
2022-10-03T08:41:24.525Z,56.25
2022-10-03T08:42:24.440Z,56.25
2022-10-03T08:43:24.443Z,56.25
2022-10-03T08:44:29.553Z,50.62
2022-10-03T08:45:24.399Z,50.62
2022-10-03T08:46:24.352Z,50.62
2022-10-03T08:47:24.396Z,50.62
2022-10-03T08:48:24.312Z,56.25
2022-10-03T08:49:24.308Z,56.25
2022-10-03T08:50:24.345Z,56.25
2022-10-03T08:51:24.339Z,56.25
2022-10-03T08:52:24.244Z,56.25
2022-10-03T08:53:24.322Z,56.25
2022-10-03T08:54:40.681Z,61.88
2022-10-03T08:55:24.239Z,61.88
2022-10-03T08:56:24.231Z,61.88
2022-10-03T08:57:24.225Z,67.50
2022-10-03T08:58:24.163Z,73.12
2022-10-03T08:59:24.221Z,73.12
2022-10-03T09:00:24.219Z,78.75
2022-10-03T09:01:24.189Z,78.75
2022-10-03T09:02:24.327Z,73.12
2022-10-03T09:03:43.061Z,73.12
2022-10-03T09:04:24.197Z,73.12
2022-10-03T09:05:24.063Z,73.12
2022-10-03T09:06:24.102Z,73.12
2022-10-03T09:07:24.492Z,73.12
2022-10-03T09:08:24.110Z,73.12
2022-10-03T09:09:24.021Z,73.12
2022-10-03T09:10:23.990Z,73.12
2022-10-03T09:11:24.055Z,67.50
2022-10-03T09:12:24.014Z,61.88
2022-10-03T09:13:24.010Z,67.50
2022-10-03T09:14:23.970Z,61.88
2022-10-03T09:15:23.948Z,61.88
2022-10-03T09:16:24.064Z,61.88
2022-10-03T09:17:23.924Z,56.25
2022-10-03T09:18:23.928Z,61.88
2022-10-03T09:19:23.905Z,61.88
2022-10-03T09:20:23.969Z,67.50
2022-10-03T09:21:23.913Z,61.88
2022-10-03T09:22:23.857Z,67.50
2022-10-03T09:23:23.876Z,67.50
2022-10-03T09:24:23.896Z,67.50
2022-10-03T09:25:24.001Z,67.50
2022-10-03T09:26:23.879Z,67.50
2022-10-03T09:27:23.755Z,67.50
2022-10-03T09:28:25.690Z,67.50
2022-10-03T09:29:23.858Z,67.50
2022-10-03T09:30:23.704Z,73.12
2022-10-03T09:31:23.850Z,73.12
2022-10-03T09:32:23.745Z,73.12
2022-10-03T09:33:23.730Z,73.12
2022-10-03T09:34:23.760Z,67.50
2022-10-03T09:35:23.652Z,61.88
2022-10-03T09:36:23.660Z,61.88
2022-10-03T09:37:23.789Z,67.50
2022-10-03T09:38:23.737Z,61.88
2022-10-03T09:39:23.658Z,61.88
2022-10-03T09:40:23.620Z,67.50
2022-10-03T09:41:23.607Z,56.25
2022-10-03T09:42:23.645Z,61.88
2022-10-03T09:43:23.591Z,61.88
2022-10-03T09:44:23.595Z,67.50
2022-10-03T09:45:23.568Z,67.50
2022-10-03T09:46:23.553Z,67.50
2022-10-03T09:47:23.481Z,67.50
2022-10-03T09:48:23.538Z,67.50
2022-10-03T09:49:23.585Z,67.50
2022-10-03T09:50:23.508Z,67.50
2022-10-03T09:51:23.429Z,67.50
2022-10-03T09:52:23.502Z,73.12
2022-10-03T09:53:23.454Z,78.75
2022-10-03T09:54:23.540Z,78.75
2022-10-03T09:55:23.436Z,73.12
2022-10-03T09:56:23.473Z,73.12
2022-10-03T09:57:23.393Z,73.12
2022-10-03T09:58:23.366Z,73.12
2022-10-03T09:59:23.348Z,67.50
2022-10-03T10:00:23.371Z,78.75
2022-10-03T10:01:23.344Z,78.75
2022-10-03T10:02:23.276Z,84.38
2022-10-03T10:03:23.304Z,73.12
2022-10-03T10:04:43.470Z,84.38
2022-10-03T10:05:23.247Z,84.38
2022-10-03T10:06:24.980Z,84.38
2022-10-03T10:07:23.242Z,84.38
2022-10-03T10:08:23.251Z,84.38
2022-10-03T10:09:23.262Z,78.75
2022-10-03T10:10:23.201Z,73.12
2022-10-03T10:11:23.201Z,67.50
2022-10-03T10:12:23.162Z,67.50
2022-10-03T10:13:23.153Z,67.50
2022-10-03T10:14:23.254Z,84.38
2022-10-03T10:15:23.080Z,78.75
2022-10-03T10:16:23.227Z,90.00
2022-10-03T10:17:23.087Z,90.00
2022-10-03T10:18:23.058Z,95.62
2022-10-03T10:19:23.094Z,101.25
2022-10-03T10:20:23.391Z,95.62
2022-10-03T10:21:23.063Z,95.62
2022-10-03T10:22:23.026Z,95.62
2022-10-03T10:23:23.048Z,90.00
2022-10-03T10:24:22.990Z,78.75
2022-10-03T10:25:22.963Z,84.38
2022-10-03T10:26:27.393Z,90.00
2022-10-03T10:27:22.966Z,106.88
2022-10-03T10:28:23.054Z,84.38
2022-10-03T10:29:22.919Z,78.75
2022-10-03T10:30:22.967Z,84.38
2022-10-03T10:31:22.978Z,95.62
2022-10-03T10:32:22.910Z,95.62
2022-10-03T10:33:22.912Z,84.38
2022-10-03T10:34:22.898Z,84.38
2022-10-03T10:35:22.952Z,78.75
2022-10-03T10:36:22.817Z,84.38
2022-10-03T10:37:22.824Z,101.25
2022-10-03T10:38:22.790Z,106.88
2022-10-03T10:39:22.810Z,101.25
2022-10-03T10:40:22.766Z,106.88
2022-10-03T10:41:22.780Z,101.25
2022-10-03T10:42:23.995Z,95.62
2022-10-03T10:43:22.820Z,95.62
2022-10-03T10:44:22.744Z,90.00
2022-10-03T10:45:26.375Z,95.62
2022-10-03T10:46:23.756Z,101.25
2022-10-03T10:47:22.715Z,95.62
2022-10-03T10:48:23.357Z,95.62
2022-10-03T10:49:22.631Z,90.00
2022-10-03T10:50:22.650Z,95.62
2022-10-03T10:51:22.709Z,95.62
2022-10-03T10:52:22.598Z,95.62
2022-10-03T10:53:22.608Z,106.88
2022-10-03T10:54:22.615Z,106.88
2022-10-03T10:55:46.191Z,101.25
2022-10-03T10:56:22.581Z,101.25
2022-10-03T10:57:24.607Z,118.12
2022-10-03T11:00:19.362Z,118.12
2022-10-03T11:01:20.423Z,106.88
2022-10-03T11:02:20.346Z,118.12
2022-10-03T11:03:20.360Z,118.12
2022-10-03T11:04:20.395Z,123.75
2022-10-03T11:05:20.320Z,118.12
2022-10-03T11:06:20.298Z,129.38
2022-10-03T11:07:20.364Z,118.12
2022-10-03T11:08:20.287Z,135.00
2022-10-03T11:09:20.304Z,129.38
2022-10-03T11:10:20.315Z,123.75
2022-10-03T11:11:20.203Z,123.75
2022-10-03T11:12:20.209Z,123.75
2022-10-03T11:13:20.220Z,123.75
2022-10-03T11:14:20.260Z,129.38
2022-10-03T11:15:20.157Z,135.00
2022-10-03T11:16:20.213Z,140.62
2022-10-03T11:17:20.219Z,146.25
2022-10-03T11:18:20.172Z,140.62
2022-10-03T11:19:20.102Z,140.62
2022-10-03T11:20:20.174Z,140.62
2022-10-03T11:21:20.078Z,140.62
2022-10-03T11:22:20.077Z,140.62
2022-10-03T11:23:20.080Z,140.62
2022-10-03T11:24:20.104Z,146.25
2022-10-03T11:25:20.018Z,146.25
2022-10-03T11:26:20.038Z,135.00
2022-10-03T11:27:20.033Z,135.00
2022-10-03T11:28:22.049Z,146.25
2022-10-03T11:29:20.022Z,135.00
2022-10-03T11:30:19.955Z,135.00
2022-10-03T11:31:20.088Z,129.38
2022-10-03T11:32:19.959Z,129.38
2022-10-03T11:33:19.918Z,146.25
2022-10-03T11:34:19.955Z,146.25
2022-10-03T11:35:19.881Z,135.00
2022-10-03T11:36:19.915Z,140.62
2022-10-03T11:37:19.859Z,151.88
2022-10-03T11:38:19.935Z,146.25
2022-10-03T11:39:19.903Z,151.88
2022-10-03T11:40:19.885Z,151.88
2022-10-03T11:41:19.912Z,123.75
2022-10-03T11:42:19.852Z,123.75
2022-10-03T11:43:19.811Z,135.00
2022-10-03T11:44:19.845Z,146.25
2022-10-03T11:45:19.753Z,157.50
2022-10-03T11:46:19.860Z,157.50
2022-10-03T11:47:19.730Z,157.50
2022-10-03T11:48:19.727Z,157.50
2022-10-03T11:49:19.771Z,157.50
2022-10-03T11:50:19.703Z,146.25
2022-10-03T11:51:19.690Z,157.50
2022-10-03T11:52:19.766Z,135.00
2022-10-03T11:53:19.749Z,123.75
2022-10-03T11:54:30.978Z,118.12
2022-10-03T11:55:19.693Z,112.50
2022-10-03T11:56:19.697Z,106.88
2022-10-03T11:57:19.594Z,112.50
2022-10-03T11:58:19.607Z,112.50
2022-10-03T11:59:24.870Z,118.12
2022-10-03T12:00:19.574Z,118.12
2022-10-03T12:01:19.613Z,123.75
2022-10-03T12:02:19.746Z,112.50
2022-10-03T12:03:19.577Z,118.12
2022-10-03T12:04:19.517Z,118.12
2022-10-03T12:05:19.522Z,123.75
2022-10-03T12:06:19.516Z,129.38
2022-10-03T12:07:19.490Z,123.75
2022-10-03T12:08:19.460Z,123.75
2022-10-03T12:09:19.904Z,123.75
2022-10-03T12:10:19.437Z,135.00
2022-10-03T12:11:19.417Z,135.00
2022-10-03T12:12:19.395Z,135.00
2022-10-03T12:13:19.564Z,129.38
2022-10-03T12:14:19.403Z,118.12
2022-10-03T12:15:19.393Z,118.12
2022-10-03T12:16:19.385Z,129.38
2022-10-03T12:17:19.462Z,129.38
2022-10-03T12:18:19.355Z,135.00
2022-10-03T12:19:19.310Z,140.62
2022-10-03T12:20:19.329Z,146.25
2022-10-03T12:21:22.033Z,146.25
2022-10-03T12:22:19.342Z,146.25
2022-10-03T12:23:19.248Z,140.62
2022-10-03T12:24:19.240Z,146.25
2022-10-03T12:25:19.230Z,135.00
2022-10-03T12:26:19.290Z,140.62
2022-10-03T12:27:19.234Z,146.25
2022-10-03T12:28:19.252Z,151.88
2022-10-03T12:29:19.230Z,157.50
2022-10-03T12:30:19.169Z,146.25
2022-10-03T12:31:19.458Z,140.62
2022-10-03T12:32:19.125Z,140.62
2022-10-03T12:33:19.108Z,118.12
2022-10-03T12:34:19.387Z,106.88
2022-10-03T12:35:19.110Z,112.50
2022-10-03T12:36:19.116Z,106.88
2022-10-03T12:37:19.068Z,101.25
2022-10-03T12:38:19.159Z,106.88
2022-10-03T12:39:19.219Z,112.50
2022-10-03T12:40:19.138Z,106.88
2022-10-03T12:41:19.004Z,106.88
2022-10-03T12:42:19.040Z,112.50
2022-10-03T12:43:18.986Z,118.12
2022-10-03T12:44:19.016Z,123.75
2022-10-03T12:45:18.964Z,135.00
2022-10-03T12:46:19.086Z,135.00
2022-10-03T12:47:27.670Z,140.62
2022-10-03T12:48:18.934Z,146.25
2022-10-03T12:49:18.963Z,140.62
2022-10-03T12:50:18.959Z,129.38
2022-10-03T12:51:18.903Z,129.38
2022-10-03T12:52:19.099Z,129.38
2022-10-03T12:53:18.866Z,129.38
2022-10-03T12:54:20.119Z,129.38
2022-10-03T12:55:18.821Z,135.00
2022-10-03T12:56:18.891Z,135.00
2022-10-03T12:57:18.838Z,123.75
2022-10-03T12:58:18.779Z,112.50
2022-10-03T12:59:18.817Z,101.25
2022-10-03T13:00:18.804Z,95.62
2022-10-03T13:01:18.764Z,106.88
2022-10-03T13:02:18.829Z,112.50